.
WxDataArchive / Data Records for 2008-09-27
2008-09-26 September 2008 2008-09-28

Data Records for Saturday, 27 September 2008

Time	Temp	Chill	HIndex	Humid	Dewpt	 Wind 	HiWind	WindDir	Rain 	Barom 
-----	----	-----	------	-----	-----	------	------	-------	-----	----- 
00:00	60.1	60.1	60.1	84	55.2	0	1	90	0.00	29.988 
00:05	59.9	59.9	59.9	84	55.0	0	1	90	0.00	29.982 
00:10	59.8	59.8	59.8	85	55.3	0	1	90	0.00	29.980 
00:15	59.6	59.6	59.6	85	55.1	0	0	---	0.00	29.976 
00:20	59.5	59.5	59.5	86	55.3	0	0	---	0.00	29.975 
00:25	59.3	59.3	59.3	86	55.1	0	1	90	0.00	29.975 
00:30	59.3	59.3	59.3	87	55.4	0	1	90	0.00	29.975 
00:35	59.2	59.2	59.2	87	55.3	0	0	---	0.00	29.975 
00:40	59.2	59.2	59.2	88	55.6	0	1	90	0.00	29.974 
00:45	59.0	59.0	59.0	88	55.4	0	2	90	0.00	29.969 
00:50	59.0	59.0	59.0	88	55.4	0	0	---	0.00	29.968 
00:55	59.0	59.0	59.0	88	55.4	0	1	90	0.00	29.966 
01:00	59.0	59.0	59.0	89	55.8	0	1	90	0.00	29.967 
01:05	59.0	59.0	59.0	89	55.8	0	1	90	0.00	29.967 
01:10	59.0	59.0	59.0	89	55.8	0	2	90	0.00	29.967 
01:15	59.0	59.0	59.0	89	55.8	0	2	90	0.00	29.968 
01:20	58.9	58.9	58.9	89	55.7	0	0	---	0.00	29.970 
01:25	58.9	58.9	58.9	89	55.7	0	0	---	0.00	29.971 
01:30	58.7	58.7	58.7	90	55.8	0	0	---	0.00	29.972 
01:35	58.6	58.6	58.6	90	55.7	0	0	---	0.00	29.973 
01:40	58.4	58.4	58.4	90	55.5	0	0	---	0.00	29.975 
01:45	58.3	58.3	58.3	90	55.4	0	1	90	0.00	29.975 
01:50	58.1	58.1	58.1	90	55.2	0	0	---	0.00	29.975 
01:55	58.0	58.0	58.0	91	55.4	0	1	90	0.00	29.974 
02:00	58.0	58.0	58.0	91	55.4	0	1	90	0.00	29.973 
02:05	57.8	57.8	57.8	91	55.2	0	1	90	0.00	29.971 
02:10	57.8	57.8	57.8	91	55.2	0	1	90	0.00	29.969 
02:15	57.6	57.6	57.6	91	55.0	0	0	---	0.00	29.967 
02:20	57.5	57.5	57.5	91	54.9	0	0	---	0.00	29.967 
02:25	57.3	57.3	57.3	92	55.0	0	0	---	0.00	29.965 
02:30	57.3	57.3	57.3	92	55.0	0	0	---	0.00	29.967 
02:35	57.5	57.5	57.5	92	55.2	0	1	90	0.00	29.969 
02:40	57.3	57.3	57.3	92	55.0	0	0	---	0.00	29.969 
02:45	57.5	57.5	57.5	93	55.5	0	0	---	0.00	29.970 
02:50	57.5	57.5	57.5	93	55.5	0	0	---	0.00	29.969 
02:55	57.3	57.3	57.3	93	55.3	0	0	---	0.00	29.969 
03:00	57.3	57.3	57.3	93	55.3	0	0	---	0.00	29.970 
03:05	57.3	57.3	57.3	93	55.3	0	0	---	0.00	29.970 
03:10	57.3	57.3	57.3	94	55.6	0	0	---	0.00	29.966 
03:15	57.5	57.5	57.5	94	55.8	0	1	90	0.00	29.966 
03:20	57.5	57.5	57.5	94	55.8	0	0	---	0.00	29.966 
03:25	57.3	57.3	57.3	94	55.6	0	0	---	0.00	29.968 
03:30	57.3	57.3	57.3	93	55.3	0	0	---	0.00	29.970 
03:35	57.2	57.2	57.2	93	55.2	0	0	---	0.00	29.970 
03:40	57.2	57.2	57.2	93	55.2	0	1	90	0.00	29.969 
03:45	57.0	57.0	57.0	93	55.0	0	0	---	0.00	29.966 
03:50	56.9	56.9	56.9	93	54.9	0	1	90	0.00	29.965 
03:55	56.7	56.7	56.7	93	54.7	0	0	---	0.00	29.964 
04:00	56.6	56.6	56.6	93	54.6	0	2	90	0.00	29.966 
04:05	56.6	56.6	56.6	92	54.3	0	0	---	0.00	29.970 
04:10	56.5	56.5	56.5	92	54.2	0	1	90	0.00	29.968 
04:15	56.5	56.5	56.5	92	54.2	0	0	---	0.00	29.969 
04:20	56.5	56.5	56.5	92	54.2	0	0	---	0.00	29.967 
04:25	56.3	56.3	56.3	92	54.0	0	1	90	0.00	29.964 
04:30	56.3	56.3	56.3	92	54.0	0	0	---	0.00	29.962 
04:35	56.3	56.3	56.3	92	54.0	0	0	---	0.00	29.964 
04:40	56.2	56.2	56.2	91	53.6	0	0	---	0.00	29.965 
04:45	56.2	56.2	56.2	91	53.6	0	0	---	0.00	29.963 
04:50	56.0	56.0	56.0	91	53.4	0	0	---	0.00	29.963 
04:55	56.0	56.0	56.0	91	53.4	0	1	90	0.00	29.964 
05:00	55.9	55.9	55.9	92	53.6	0	1	90	0.00	29.963 
05:05	55.9	55.9	55.9	92	53.6	0	0	---	0.00	29.966 
05:10	55.9	55.9	55.9	92	53.6	0	0	---	0.00	29.968 
05:15	55.7	55.7	55.7	92	53.4	0	0	---	0.00	29.969 
05:20	55.7	55.7	55.7	92	53.4	0	0	---	0.00	29.969 
05:25	55.7	55.7	55.7	92	53.4	0	1	90	0.00	29.969 
05:30	55.7	55.7	55.7	92	53.4	0	0	---	0.00	29.967 
05:35	55.7	55.7	55.7	92	53.4	0	1	90	0.00	29.970 
05:40	55.7	55.7	55.7	92	53.4	0	2	90	0.00	29.970 
05:45	55.6	55.6	55.6	92	53.3	0	0	---	0.00	29.967 
05:50	55.6	55.6	55.6	92	53.3	0	0	---	0.00	29.967 
05:55	55.6	55.6	55.6	92	53.3	0	1	90	0.00	29.970 
06:00	55.7	55.7	55.7	92	53.4	0	1	90	0.00	29.969 
06:05	55.7	55.7	55.7	93	53.7	0	1	90	0.00	29.971 
06:10	55.7	55.7	55.7	93	53.7	0	0	---	0.00	29.973 
06:15	55.7	55.7	55.7	93	53.7	0	0	---	0.00	29.974 
06:20	55.7	55.7	55.7	93	53.7	0	1	90	0.00	29.975 
06:25	55.6	55.6	55.6	93	53.6	0	0	---	0.00	29.976 
06:30	55.6	55.6	55.6	93	53.6	0	0	---	0.00	29.972 
06:35	55.6	55.6	55.6	93	53.6	0	0	---	0.00	29.974 
06:40	55.4	55.4	55.4	93	53.4	0	0	---	0.00	29.978 
06:45	55.3	55.3	55.3	93	53.3	0	0	---	0.00	29.981 
06:50	55.3	55.3	55.3	93	53.3	0	0	---	0.00	29.982 
06:55	55.3	55.3	55.3	94	53.6	0	0	---	0.00	29.983 
07:00	55.3	55.3	55.3	94	53.6	0	0	---	0.00	29.983 
07:05	55.4	55.4	55.4	94	53.7	0	0	---	0.00	29.985 
07:10	55.6	55.6	55.6	94	53.9	0	0	---	0.00	29.986 
07:15	55.9	55.9	55.9	94	54.2	0	0	---	0.00	29.988 
07:20	56.2	56.2	56.2	95	54.8	0	2	90	0.00	29.989 
07:25	56.5	56.5	56.5	94	54.8	0	1	90	0.00	29.989 
07:30	56.7	56.7	56.7	94	55.0	0	1	90	0.00	29.987 
07:35	57.0	57.0	57.0	94	55.3	0	1	90	0.00	29.988 
07:40	57.5	57.5	57.5	94	55.8	0	1	90	0.00	29.988 
07:45	57.8	57.8	57.8	94	56.1	0	1	90	0.00	29.987 
07:50	58.1	58.1	58.1	94	56.4	0	1	90	0.00	29.987 
07:55	58.6	58.6	58.6	94	56.9	0	1	90	0.00	29.986 
08:00	58.9	58.9	58.9	93	56.9	0	1	90	0.00	29.986 
08:05	59.3	59.3	59.3	93	57.3	0	1	90	0.00	29.988 
08:10	59.6	59.6	59.6	92	57.3	0	1	90	0.00	29.988 
08:15	59.8	59.8	59.8	91	57.2	1	4	112	0.00	29.994 
08:20	60.1	60.1	60.1	90	57.2	1	4	112	0.00	29.994 
08:25	60.5	60.5	60.5	90	57.5	0	3	135	0.00	29.995 
08:30	60.9	60.9	60.9	89	57.6	0	2	135	0.00	29.992 
08:35	61.2	61.2	61.2	88	57.6	0	2	135	0.00	29.993 
08:40	61.6	61.6	61.6	88	58.0	1	3	112	0.00	29.992 
08:45	62.1	62.1	62.1	87	58.2	0	3	90	0.00	29.989 
08:50	62.6	62.6	62.6	86	58.3	1	5	135	0.00	29.990 
08:55	62.9	62.9	62.9	85	58.3	0	1	112	0.00	29.992 
09:00	63.4	63.4	63.4	84	58.5	0	1	112	0.00	29.994 
09:05	63.9	63.9	63.9	84	59.0	0	2	112	0.00	29.996 
09:10	64.3	64.3	64.3	83	59.0	1	4	112	0.00	29.996 
09:15	64.8	64.8	64.8	82	59.2	0	3	158	0.00	29.995 
09:20	65.3	65.3	65.3	81	59.3	0	2	112	0.00	29.994 
09:25	65.8	65.8	65.8	80	59.5	0	2	112	0.00	29.994 
09:30	66.6	66.6	66.6	77	59.2	1	3	135	0.00	29.994 
09:35	67.3	67.3	67.3	77	59.8	1	3	135	0.00	29.992 
09:40	67.6	67.6	67.6	76	59.8	0	2	135	0.00	29.992 
09:45	67.8	67.8	67.8	76	59.9	0	2	90	0.00	29.991 
09:50	68.3	68.3	68.3	76	60.4	0	2	90	0.00	29.989 
09:55	68.9	68.9	68.9	73	59.9	1	4	112	0.00	29.988 
10:00	69.4	69.4	69.4	71	59.6	1	4	90	0.00	29.984 
10:05	69.6	69.6	69.6	72	60.2	0	2	158	0.00	29.985 
10:10	69.8	69.8	69.8	71	60.0	0	3	135	0.00	29.985 
10:15	70.4	70.4	70.4	71	60.5	1	3	135	0.00	29.981 
10:20	70.6	70.6	70.6	71	60.7	1	5	158	0.00	29.979 
10:25	70.8	70.8	70.8	70	60.5	1	4	112	0.00	29.977 
10:30	70.9	70.9	70.9	68	59.8	0	3	90	0.00	29.977 
10:35	71.1	71.1	71.1	68	60.0	0	3	90	0.00	29.977 
10:40	71.3	71.3	71.3	68	60.2	1	4	292	0.00	29.975 
10:45	71.6	71.6	71.6	68	60.5	0	4	292	0.00	29.973 
10:50	72.1	72.1	72.1	67	60.5	1	5	45	0.00	29.973 
10:55	72.3	72.3	72.3	64	59.4	2	7	112	0.00	29.973 
11:00	72.8	72.8	72.8	65	60.3	1	4	90	0.00	29.969 
11:05	73.2	73.2	73.2	61	58.9	1	3	90	0.00	29.970 
11:10	73.3	73.3	73.3	62	59.5	2	6	90	0.00	29.968 
11:15	73.2	73.2	73.2	59	58.0	2	6	90	0.00	29.965 
11:20	73.5	73.5	73.5	61	59.2	1	4	112	0.00	29.960 
11:25	74.0	74.0	74.0	59	58.7	1	5	90	0.00	29.960 
11:30	74.2	74.2	74.2	57	58.0	2	5	112	0.00	29.959 
11:35	74.6	74.6	74.6	60	59.8	1	3	112	0.00	29.957 
11:40	74.7	74.7	74.7	59	59.4	2	7	112	0.00	29.957 
11:45	74.7	74.7	74.7	56	57.9	2	6	90	0.00	29.957 
11:50	74.7	74.7	74.7	54	56.9	1	4	112	0.00	29.956 
11:55	75.1	75.1	77.6	53	56.8	2	5	112	0.00	29.954 
12:00	75.3	75.3	77.7	52	56.4	1	5	68	0.00	29.952 
12:05	75.4	75.4	77.8	53	57.1	2	9	112	0.00	29.953 
12:10	75.4	75.4	77.8	51	56.0	2	7	112	0.00	29.949 
12:15	75.4	75.4	77.8	52	56.5	3	9	90	0.00	29.948 
12:20	75.6	75.6	77.9	54	57.8	2	9	135	0.00	29.946 
12:25	75.6	75.6	77.9	51	56.2	1	9	135	0.00	29.946 
12:30	76.0	76.0	78.0	47	54.3	2	6	112	0.00	29.946 
12:35	76.1	76.1	78.1	50	56.1	2	5	112	0.00	29.944 
12:40	76.5	76.5	78.3	48	55.3	1	4	112	0.00	29.941 
12:45	76.7	76.7	78.4	48	55.5	0	3	112	0.00	29.940 
12:50	76.8	76.8	78.4	47	55.0	1	4	112	0.00	29.939 
12:55	76.8	76.8	78.4	47	55.0	2	5	112	0.00	29.937 
13:00	76.8	76.8	78.4	47	55.0	1	5	292	0.00	29.933 
13:05	76.8	76.8	78.3	44	53.2	2	7	112	0.00	29.937 
13:10	76.8	76.8	78.3	43	52.6	2	6	90	0.00	29.937 
13:15	76.8	76.8	78.2	41	51.3	1	4	90	0.00	29.932 
13:20	76.8	76.8	78.2	41	51.3	3	7	112	0.00	29.932 
13:25	76.7	76.7	78.3	44	53.1	1	5	90	0.00	29.930 
13:30	77.0	77.0	78.4	43	52.8	1	4	135	0.00	29.929 
13:35	77.0	77.0	78.4	43	52.8	3	7	90	0.00	29.929 
13:40	76.8	76.8	78.3	45	53.8	2	4	90	0.00	29.928 
13:45	77.0	77.0	78.5	47	55.2	1	5	112	0.00	29.927 
13:50	76.8	76.8	78.3	45	53.8	3	6	112	0.00	29.927 
13:55	76.8	76.8	78.3	45	53.8	2	7	112	0.00	29.927 
14:00	76.8	76.8	78.4	48	55.6	1	3	112	0.00	29.925 
14:05	76.8	76.8	78.4	46	54.4	2	5	112	0.00	29.926 
14:10	77.0	77.0	78.5	46	54.6	1	4	90	0.00	29.926 
14:15	77.0	77.0	78.4	45	54.0	1	4	112	0.00	29.927 
14:20	77.0	77.0	78.5	46	54.6	2	4	112	0.00	29.928 
14:25	77.0	77.0	78.5	46	54.6	1	4	112	0.00	29.927 
14:30	77.0	77.0	78.4	45	54.0	2	6	112	0.00	29.927 
14:35	77.0	77.0	78.5	47	55.2	1	5	112	0.00	29.926 
14:40	77.2	77.2	78.6	47	55.4	1	2	68	0.00	29.926 
14:45	77.4	77.4	78.7	46	55.0	1	3	68	0.00	29.924 
14:50	77.0	77.0	78.5	46	54.6	3	7	90	0.00	29.922 
14:55	77.0	77.0	78.6	49	56.4	1	3	135	0.00	29.920 
15:00	77.0	77.0	78.5	48	55.8	2	7	90	0.00	29.921 
15:05	77.0	77.0	78.6	50	56.9	0	1	112	0.00	29.919 
15:10	77.0	77.0	78.5	48	55.8	1	5	112	0.00	29.918 
15:15	77.0	77.0	78.6	51	57.5	1	5	112	0.00	29.918 
15:20	76.8	76.8	78.5	49	56.2	0	3	90	0.00	29.918 
15:25	76.7	76.7	78.4	48	55.5	0	2	90	0.00	29.918 
15:30	76.5	76.5	78.3	49	55.9	2	4	90	0.00	29.917 
15:35	76.1	76.1	78.1	51	56.6	1	3	90	0.00	29.920 
15:40	76.1	76.1	78.1	49	55.5	0	2	68	0.00	29.922 
15:45	76.0	76.0	78.1	49	55.4	2	5	112	0.00	29.922 
15:50	76.0	76.0	78.1	49	55.4	2	5	112	0.00	29.925 
15:55	76.0	76.0	78.1	50	56.0	1	6	112	0.00	29.924 
16:00	75.8	75.8	78.0	49	55.3	1	4	90	0.00	29.925 
16:05	75.6	75.6	77.9	51	56.2	0	2	135	0.00	29.923 
16:10	75.4	75.4	77.8	50	55.4	1	4	112	0.00	29.925 
16:15	75.4	75.4	77.8	51	56.0	1	4	112	0.00	29.926 
16:20	75.4	75.4	77.8	52	56.5	1	3	112	0.00	29.927 
16:25	75.4	75.4	77.8	51	56.0	1	4	112	0.00	29.928 
16:30	75.3	75.3	77.7	51	55.9	1	3	112	0.00	29.929 
16:35	75.1	75.1	77.6	52	56.3	0	3	112	0.00	29.930 
16:40	74.7	74.7	74.7	52	55.9	1	4	90	0.00	29.931 
16:45	74.7	74.7	74.7	53	56.4	1	4	90	0.00	29.931 
16:50	74.6	74.6	74.6	53	56.3	1	3	90	0.00	29.933 
16:55	74.6	74.6	74.6	53	56.3	1	4	112	0.00	29.933 
17:00	74.4	74.4	74.4	53	56.1	0	3	112	0.00	29.934 
17:05	74.4	74.4	74.4	53	56.1	1	4	90	0.00	29.933 
17:10	74.2	74.2	74.2	54	56.5	0	3	68	0.00	29.935 
17:15	74.0	74.0	74.0	54	56.3	0	3	68	0.00	29.935 
17:20	73.9	73.9	73.9	54	56.2	0	1	45	0.00	29.934 
17:25	73.7	73.7	73.7	55	56.5	0	2	45	0.00	29.936 
17:30	73.5	73.5	73.5	55	56.3	0	3	45	0.00	29.937 
17:35	73.5	73.5	73.5	56	56.8	0	2	90	0.00	29.937 
17:40	73.3	73.3	73.3	55	56.1	0	2	90	0.00	29.939 
17:45	73.2	73.2	73.2	56	56.5	0	1	90	0.00	29.944 
17:50	73.0	73.0	73.0	57	56.9	0	2	135	0.00	29.943 
17:55	72.8	72.8	72.8	58	57.1	0	1	135	0.00	29.944 
18:00	72.5	72.5	72.5	58	56.9	0	0	---	0.00	29.946 
18:05	72.1	72.1	72.1	59	57.0	0	1	135	0.00	29.950 
18:10	71.8	71.8	71.8	59	56.7	0	1	135	0.00	29.950 
18:15	71.5	71.5	71.5	60	56.9	0	1	135	0.00	29.951 
18:20	71.1	71.1	71.1	61	57.0	0	2	135	0.00	29.955 
18:25	70.8	70.8	70.8	62	57.1	0	1	135	0.00	29.958 
18:30	70.4	70.4	70.4	62	56.7	0	0	---	0.00	29.960 
18:35	69.9	69.9	69.9	64	57.2	0	0	---	0.00	29.961 
18:40	69.4	69.4	69.4	65	57.1	0	0	---	0.00	29.960 
18:45	68.8	68.8	68.8	65	56.5	0	0	---	0.00	29.962 
18:50	68.3	68.3	68.3	67	56.9	0	0	---	0.00	29.966 
18:55	67.8	67.8	67.8	68	56.8	0	0	---	0.00	29.967 
19:00	67.3	67.3	67.3	69	56.8	0	0	---	0.00	29.968 
19:05	66.8	66.8	66.8	71	57.1	0	0	---	0.00	29.966 
19:10	66.4	66.4	66.4	72	57.1	0	0	---	0.00	29.968 
19:15	66.0	66.0	66.0	73	57.1	0	0	---	0.00	29.970 
19:20	65.6	65.6	65.6	73	56.7	0	0	---	0.00	29.971 
19:25	65.2	65.2	65.2	74	56.7	0	0	---	0.00	29.973 
19:30	64.8	64.8	64.8	75	56.7	0	0	---	0.00	29.976 
19:35	64.3	64.3	64.3	76	56.6	0	0	---	0.00	29.977 
19:40	64.0	64.0	64.0	77	56.6	0	0	---	0.00	29.977 
19:45	63.7	63.7	63.7	78	56.7	0	0	---	0.00	29.980 
19:50	63.4	63.4	63.4	78	56.4	0	0	---	0.00	29.981 
19:55	63.1	63.1	63.1	79	56.5	0	0	---	0.00	29.982 
20:00	62.6	62.6	62.6	80	56.3	0	0	---	0.00	29.983 
20:05	62.3	62.3	62.3	81	56.4	0	0	---	0.00	29.982 
20:10	62.0	62.0	62.0	82	56.4	0	0	---	0.00	29.982 
20:15	61.6	61.6	61.6	84	56.7	0	0	---	0.00	29.982 
20:20	61.3	61.3	61.3	84	56.4	0	0	---	0.00	29.982 
20:25	61.0	61.0	61.0	85	56.5	0	0	---	0.00	29.983 
20:30	60.9	60.9	60.9	85	56.4	0	0	---	0.00	29.985 
20:35	60.5	60.5	60.5	86	56.3	0	0	---	0.00	29.985 
20:40	60.2	60.2	60.2	87	56.3	0	0	---	0.00	29.991 
20:45	60.1	60.1	60.1	88	56.5	0	0	---	0.00	29.995 
20:50	59.9	59.9	59.9	88	56.3	0	0	---	0.00	29.998 
20:55	59.6	59.6	59.6	88	56.0	0	0	---	0.00	29.998 
21:00	59.5	59.5	59.5	89	56.3	0	0	---	0.00	29.999 
21:05	59.5	59.5	59.5	90	56.6	0	0	---	0.00	29.995 
21:10	59.3	59.3	59.3	90	56.4	0	0	---	0.00	29.995 
21:15	59.0	59.0	59.0	90	56.1	0	0	---	0.00	29.995 
21:20	59.0	59.0	59.0	91	56.4	0	0	---	0.00	29.994 
21:25	58.9	58.9	58.9	91	56.3	0	0	---	0.00	29.994 
21:30	58.7	58.7	58.7	91	56.1	0	0	---	0.00	29.994 
21:35	58.6	58.6	58.6	91	56.0	0	0	---	0.00	29.995 
21:40	58.4	58.4	58.4	91	55.8	0	0	---	0.00	29.996 
21:45	58.3	58.3	58.3	92	56.0	0	0	---	0.00	29.998 
21:50	58.1	58.1	58.1	92	55.8	0	0	---	0.00	29.998 
21:55	58.0	58.0	58.0	92	55.7	0	0	---	0.00	29.998 
22:00	58.0	58.0	58.0	92	55.7	0	0	---	0.00	29.999 
22:05	57.8	57.8	57.8	92	55.5	0	0	---	0.00	29.996 
22:10	57.5	57.5	57.5	92	55.2	0	0	---	0.00	29.998 
22:15	57.3	57.3	57.3	92	55.0	0	0	---	0.00	29.998 
22:20	57.3	57.3	57.3	92	55.0	0	0	---	0.00	29.999 
22:25	57.2	57.2	57.2	93	55.2	0	0	---	0.00	30.001 
22:30	57.0	57.0	57.0	93	55.0	0	0	---	0.00	29.999 
22:35	56.7	56.7	56.7	93	54.7	0	0	---	0.00	30.000 
22:40	56.6	56.6	56.6	93	54.6	0	0	---	0.00	30.000 
22:45	56.5	56.5	56.5	93	54.5	0	0	---	0.00	29.998 
22:50	56.3	56.3	56.3	93	54.3	0	0	---	0.00	29.999 
22:55	56.3	56.3	56.3	93	54.3	0	0	---	0.00	29.999 
23:00	56.3	56.3	56.3	93	54.3	0	0	---	0.00	30.001 
23:05	56.2	56.2	56.2	93	54.2	0	0	---	0.00	30.001 
23:10	56.0	56.0	56.0	94	54.3	0	0	---	0.00	30.001 
23:15	55.9	55.9	55.9	94	54.2	0	0	---	0.00	30.002 
23:20	55.9	55.9	55.9	94	54.2	0	0	---	0.00	30.001 
23:25	55.7	55.7	55.7	94	54.0	0	0	---	0.00	30.003 
23:30	55.7	55.7	55.7	94	54.0	0	0	---	0.00	30.006 
23:35	55.6	55.6	55.6	94	53.9	0	0	---	0.00	30.006 
23:40	55.4	55.4	55.4	94	53.7	0	0	---	0.00	30.008 
23:45	55.4	55.4	55.4	94	53.7	0	0	---	0.00	30.008 
23:50	55.3	55.3	55.3	94	53.6	0	0	---	0.00	30.007 
23:55	55.1	55.1	55.1	94	53.4	0	0	---	0.00	30.005 

CoCoRaHS
IN-AL-39
A2 Web Hosting
Creative Commons License
GoDaddy
Look for:

loaded 2017-10-18 22:19:54 • last modified 2010-11-18 10:43:29
Privacy PolicyDisclaimer
• wx.awcolley.com is powered by PmWiki v.2002016 •
• all content (unless otherwise noted) © 2017 A W Colley